sensor_id;sensor_type;location;lat;lon;timestamp;temperature;humidity
2024;DHT22;1016;48.770;9.154;2023-05-28T00:01:25;17.40;86.90
2024;DHT22;1016;48.770;9.154;2023-05-28T00:03:50;17.30;87.00
2024;DHT22;1016;48.770;9.154;2023-05-28T00:06:16;17.30;87.40
2024;DHT22;1016;48.770;9.154;2023-05-28T00:08:41;17.30;87.60
2024;DHT22;1016;48.770;9.154;2023-05-28T00:11:07;17.30;87.70
2024;DHT22;1016;48.770;9.154;2023-05-28T00:13:32;17.20;87.90
2024;DHT22;1016;48.770;9.154;2023-05-28T00:15:58;17.20;87.90
2024;DHT22;1016;48.770;9.154;2023-05-28T00:18:23;17.20;88.10
2024;DHT22;1016;48.770;9.154;2023-05-28T00:20:49;17.10;88.10
2024;DHT22;1016;48.770;9.154;2023-05-28T00:23:15;17.10;88.50
2024;DHT22;1016;48.770;9.154;2023-05-28T00:25:41;17.20;88.80
2024;DHT22;1016;48.770;9.154;2023-05-28T00:28:07;17.10;89.10
2024;DHT22;1016;48.770;9.154;2023-05-28T00:30:33;17.10;89.10
2024;DHT22;1016;48.770;9.154;2023-05-28T00:32:58;17.10;89.30
2024;DHT22;1016;48.770;9.154;2023-05-28T00:35:24;17.10;89.40
2024;DHT22;1016;48.770;9.154;2023-05-28T00:37:50;17.10;89.40
2024;DHT22;1016;48.770;9.154;2023-05-28T00:40:17;17.00;89.40
2024;DHT22;1016;48.770;9.154;2023-05-28T00:42:46;17.00;89.30
2024;DHT22;1016;48.770;9.154;2023-05-28T00:45:12;17.00;90.10
2024;DHT22;1016;48.770;9.154;2023-05-28T00:47:39;17.00;89.70
2024;DHT22;1016;48.770;9.154;2023-05-28T00:50:08;17.00;90.00
2024;DHT22;1016;48.770;9.154;2023-05-28T00:52:35;16.90;90.00
2024;DHT22;1016;48.770;9.154;2023-05-28T00:55:02;16.90;90.10
2024;DHT22;1016;48.770;9.154;2023-05-28T00:57:29;16.90;90.20
2024;DHT22;1016;48.770;9.154;2023-05-28T00:59:56;16.90;90.40
2024;DHT22;1016;48.770;9.154;2023-05-28T01:02:22;16.80;90.50
2024;DHT22;1016;48.770;9.154;2023-05-28T01:04:47;16.80;90.50
2024;DHT22;1016;48.770;9.154;2023-05-28T01:07:13;16.80;91.10
2024;DHT22;1016;48.770;9.154;2023-05-28T01:09:38;16.90;91.00
2024;DHT22;1016;48.770;9.154;2023-05-28T01:12:05;16.90;90.70
2024;DHT22;1016;48.770;9.154;2023-05-28T01:14:32;16.90;90.70
2024;DHT22;1016;48.770;9.154;2023-05-28T01:16:57;16.80;90.70
2024;DHT22;1016;48.770;9.154;2023-05-28T01:19:24;16.80;90.80
2024;DHT22;1016;48.770;9.154;2023-05-28T01:21:57;16.80;90.90
2024;DHT22;1016;48.770;9.154;2023-05-28T01:24:24;16.70;90.90
2024;DHT22;1016;48.770;9.154;2023-05-28T01:26:49;16.70;91.10
2024;DHT22;1016;48.770;9.154;2023-05-28T01:29:16;16.70;91.10
2024;DHT22;1016;48.770;9.154;2023-05-28T01:31:43;16.70;91.30
2024;DHT22;1016;48.770;9.154;2023-05-28T01:34:09;16.70;91.30
2024;DHT22;1016;48.770;9.154;2023-05-28T01:36:38;16.60;91.40
2024;DHT22;1016;48.770;9.154;2023-05-28T01:39:06;16.60;91.50
2024;DHT22;1016;48.770;9.154;2023-05-28T01:41:34;16.60;91.60
2024;DHT22;1016;48.770;9.154;2023-05-28T01:44:00;16.60;91.70
2024;DHT22;1016;48.770;9.154;2023-05-28T01:46:26;16.60;91.80
2024;DHT22;1016;48.770;9.154;2023-05-28T01:48:52;16.50;91.80
2024;DHT22;1016;48.770;9.154;2023-05-28T01:51:22;16.40;95.60
2024;DHT22;1016;48.770;9.154;2023-05-28T01:53:48;16.40;94.20
2024;DHT22;1016;48.770;9.154;2023-05-28T01:56:13;16.30;92.80
2024;DHT22;1016;48.770;9.154;2023-05-28T01:58:39;16.30;92.10
2024;DHT22;1016;48.770;9.154;2023-05-28T02:01:14;16.30;92.30
2024;DHT22;1016;48.770;9.154;2023-05-28T02:03:41;16.30;92.40
2024;DHT22;1016;48.770;9.154;2023-05-28T02:06:07;16.30;92.40
2024;DHT22;1016;48.770;9.154;2023-05-28T02:08:32;16.20;92.50
2024;DHT22;1016;48.770;9.154;2023-05-28T02:10:57;16.20;92.60
2024;DHT22;1016;48.770;9.154;2023-05-28T02:13:25;16.10;99.90
2024;DHT22;1016;48.770;9.154;2023-05-28T02:15:53;16.10;99.90
2024;DHT22;1016;48.770;9.154;2023-05-28T02:18:19;16.10;93.20
2024;DHT22;1016;48.770;9.154;2023-05-28T02:20:44;16.40;93.30
2024;DHT22;1016;48.770;9.154;2023-05-28T02:23:10;16.00;93.20
2024;DHT22;1016;48.770;9.154;2023-05-28T02:25:35;16.30;99.90
2024;DHT22;1016;48.770;9.154;2023-05-28T02:28:02;16.00;93.40
2024;DHT22;1016;48.770;9.154;2023-05-28T02:30:28;16.00;93.40
2024;DHT22;1016;48.770;9.154;2023-05-28T02:32:53;16.00;93.40
2024;DHT22;1016;48.770;9.154;2023-05-28T02:35:20;15.90;93.50
2024;DHT22;1016;48.770;9.154;2023-05-28T02:37:46;15.90;93.70
2024;DHT22;1016;48.770;9.154;2023-05-28T02:40:12;15.90;93.70
2024;DHT22;1016;48.770;9.154;2023-05-28T02:42:38;15.90;93.80
2024;DHT22;1016;48.770;9.154;2023-05-28T02:45:04;15.90;93.90
2024;DHT22;1016;48.770;9.154;2023-05-28T02:47:30;15.80;93.90
2024;DHT22;1016;48.770;9.154;2023-05-28T02:49:55;15.80;94.00
2024;DHT22;1016;48.770;9.154;2023-05-28T02:52:21;15.80;94.20
2024;DHT22;1016;48.770;9.154;2023-05-28T02:54:46;15.70;94.30
2024;DHT22;1016;48.770;9.154;2023-05-28T02:57:12;15.70;94.30
2024;DHT22;1016;48.770;9.154;2023-05-28T02:59:37;15.70;94.50
2024;DHT22;1016;48.770;9.154;2023-05-28T03:02:03;15.70;94.50
2024;DHT22;1016;48.770;9.154;2023-05-28T03:04:28;15.70;94.60
2024;DHT22;1016;48.770;9.154;2023-05-28T03:06:53;15.70;94.70
2024;DHT22;1016;48.770;9.154;2023-05-28T03:09:19;15.60;94.70
2024;DHT22;1016;48.770;9.154;2023-05-28T03:11:44;15.60;94.80
2024;DHT22;1016;48.770;9.154;2023-05-28T03:14:10;15.60;95.00
2024;DHT22;1016;48.770;9.154;2023-05-28T03:16:35;15.10;94.80
2024;DHT22;1016;48.770;9.154;2023-05-28T03:19:02;15.60;95.20
2024;DHT22;1016;48.770;9.154;2023-05-28T03:21:27;15.60;95.60
2024;DHT22;1016;48.770;9.154;2023-05-28T03:23:53;15.50;95.30
2024;DHT22;1016;48.770;9.154;2023-05-28T03:26:18;15.50;95.40
2024;DHT22;1016;48.770;9.154;2023-05-28T03:28:43;15.40;95.50
2024;DHT22;1016;48.770;9.154;2023-05-28T03:31:11;15.40;95.70
2024;DHT22;1016;48.770;9.154;2023-05-28T03:33:36;15.50;95.80
2024;DHT22;1016;48.770;9.154;2023-05-28T03:36:01;15.50;95.90
2024;DHT22;1016;48.770;9.154;2023-05-28T03:38:27;15.40;95.80
2024;DHT22;1016;48.770;9.154;2023-05-28T03:40:52;15.40;95.90
2024;DHT22;1016;48.770;9.154;2023-05-28T03:43:18;15.30;95.60
2024;DHT22;1016;48.770;9.154;2023-05-28T03:45:43;15.30;95.90
2024;DHT22;1016;48.770;9.154;2023-05-28T03:48:09;15.30;95.80
2024;DHT22;1016;48.770;9.154;2023-05-28T03:50:34;15.30;95.90
2024;DHT22;1016;48.770;9.154;2023-05-28T03:53:00;15.40;96.00
2024;DHT22;1016;48.770;9.154;2023-05-28T03:55:26;15.40;96.30
2024;DHT22;1016;48.770;9.154;2023-05-28T03:57:51;15.50;96.10
2024;DHT22;1016;48.770;9.154;2023-05-28T04:00:17;15.50;96.10
2024;DHT22;1016;48.770;9.154;2023-05-28T04:02:42;15.50;96.10
2024;DHT22;1016;48.770;9.154;2023-05-28T04:05:08;15.50;96.20
2024;DHT22;1016;48.770;9.154;2023-05-28T04:07:34;15.60;96.60
2024;DHT22;1016;48.770;9.154;2023-05-28T04:09:59;15.70;96.50
2024;DHT22;1016;48.770;9.154;2023-05-28T04:12:25;15.80;96.10
2024;DHT22;1016;48.770;9.154;2023-05-28T04:14:51;15.90;96.50
2024;DHT22;1016;48.770;9.154;2023-05-28T04:17:16;15.90;96.40
2024;DHT22;1016;48.770;9.154;2023-05-28T04:19:43;16.00;96.10
2024;DHT22;1016;48.770;9.154;2023-05-28T04:22:09;16.00;95.90
2024;DHT22;1016;48.770;9.154;2023-05-28T04:24:34;16.00;95.90
2024;DHT22;1016;48.770;9.154;2023-05-28T04:27:00;15.90;95.90
2024;DHT22;1016;48.770;9.154;2023-05-28T04:29:26;15.90;96.10
2024;DHT22;1016;48.770;9.154;2023-05-28T04:31:54;16.00;96.10
2024;DHT22;1016;48.770;9.154;2023-05-28T04:34:20;16.00;96.10
2024;DHT22;1016;48.770;9.154;2023-05-28T04:36:46;16.00;96.20
2024;DHT22;1016;48.770;9.154;2023-05-28T04:39:14;16.00;96.20
2024;DHT22;1016;48.770;9.154;2023-05-28T04:41:39;16.00;96.30
2024;DHT22;1016;48.770;9.154;2023-05-28T04:44:05;16.00;96.60
2024;DHT22;1016;48.770;9.154;2023-05-28T04:46:31;16.00;96.70
2024;DHT22;1016;48.770;9.154;2023-05-28T04:48:56;16.00;96.80
2024;DHT22;1016;48.770;9.154;2023-05-28T04:51:22;16.10;97.10
2024;DHT22;1016;48.770;9.154;2023-05-28T04:53:48;16.10;97.10
2024;DHT22;1016;48.770;9.154;2023-05-28T04:56:14;16.20;97.30
2024;DHT22;1016;48.770;9.154;2023-05-28T04:58:39;16.20;97.20
2024;DHT22;1016;48.770;9.154;2023-05-28T05:01:05;16.20;97.00
2024;DHT22;1016;48.770;9.154;2023-05-28T05:03:32;16.30;96.80
2024;DHT22;1016;48.770;9.154;2023-05-28T05:05:58;16.40;96.50
2024;DHT22;1016;48.770;9.154;2023-05-28T05:08:23;16.50;96.60
2024;DHT22;1016;48.770;9.154;2023-05-28T05:10:49;16.60;96.20
2024;DHT22;1016;48.770;9.154;2023-05-28T05:13:14;16.70;95.80
2024;DHT22;1016;48.770;9.154;2023-05-28T05:15:40;16.70;96.00
2024;DHT22;1016;48.770;9.154;2023-05-28T05:18:06;16.80;95.80
2024;DHT22;1016;48.770;9.154;2023-05-28T05:20:31;16.80;95.60
2024;DHT22;1016;48.770;9.154;2023-05-28T05:22:57;16.70;95.70
2024;DHT22;1016;48.770;9.154;2023-05-28T05:25:22;16.80;96.40
2024;DHT22;1016;48.770;9.154;2023-05-28T05:27:51;16.90;96.20
2024;DHT22;1016;48.770;9.154;2023-05-28T05:30:17;17.00;95.70
2024;DHT22;1016;48.770;9.154;2023-05-28T05:32:42;17.10;94.80
2024;DHT22;1016;48.770;9.154;2023-05-28T05:35:08;17.10;94.90
2024;DHT22;1016;48.770;9.154;2023-05-28T05:37:34;17.00;94.80
2024;DHT22;1016;48.770;9.154;2023-05-28T05:40:01;17.10;95.00
2024;DHT22;1016;48.770;9.154;2023-05-28T05:42:26;17.10;94.80
2024;DHT22;1016;48.770;9.154;2023-05-28T05:44:52;17.20;94.70
2024;DHT22;1016;48.770;9.154;2023-05-28T05:47:18;17.20;94.40
2024;DHT22;1016;48.770;9.154;2023-05-28T05:49:43;17.30;94.20
2024;DHT22;1016;48.770;9.154;2023-05-28T05:52:09;17.30;93.90
2024;DHT22;1016;48.770;9.154;2023-05-28T05:54:34;17.30;93.90
2024;DHT22;1016;48.770;9.154;2023-05-28T05:57:00;17.40;93.20
2024;DHT22;1016;48.770;9.154;2023-05-28T05:59:28;17.30;93.10
2024;DHT22;1016;48.770;9.154;2023-05-28T06:01:53;17.30;93.50
2024;DHT22;1016;48.770;9.154;2023-05-28T06:04:19;17.30;93.40
2024;DHT22;1016;48.770;9.154;2023-05-28T06:06:45;17.30;93.50
2024;DHT22;1016;48.770;9.154;2023-05-28T06:09:10;17.20;93.60
2024;DHT22;1016;48.770;9.154;2023-05-28T06:11:36;17.30;93.70
2024;DHT22;1016;48.770;9.154;2023-05-28T06:14:01;17.30;93.70
2024;DHT22;1016;48.770;9.154;2023-05-28T06:16:27;17.30;93.70
2024;DHT22;1016;48.770;9.154;2023-05-28T06:18:54;17.40;93.40
2024;DHT22;1016;48.770;9.154;2023-05-28T06:21:19;17.50;93.30
2024;DHT22;1016;48.770;9.154;2023-05-28T06:23:45;17.40;92.70
2024;DHT22;1016;48.770;9.154;2023-05-28T06:26:11;17.50;92.10
2024;DHT22;1016;48.770;9.154;2023-05-28T06:28:37;17.50;92.00
2024;DHT22;1016;48.770;9.154;2023-05-28T06:31:03;17.60;92.00
2024;DHT22;1016;48.770;9.154;2023-05-28T06:33:28;17.60;91.80
2024;DHT22;1016;48.770;9.154;2023-05-28T06:35:54;17.70;91.90
2024;DHT22;1016;48.770;9.154;2023-05-28T06:38:19;17.70;91.60
2024;DHT22;1016;48.770;9.154;2023-05-28T06:40:45;17.70;91.70
2024;DHT22;1016;48.770;9.154;2023-05-28T06:43:10;17.90;91.00
2024;DHT22;1016;48.770;9.154;2023-05-28T06:45:36;17.90;90.90
2024;DHT22;1016;48.770;9.154;2023-05-28T06:48:01;17.80;90.90
2024;DHT22;1016;48.770;9.154;2023-05-28T06:50:28;17.80;91.00
2024;DHT22;1016;48.770;9.154;2023-05-28T06:52:53;17.80;91.40
2024;DHT22;1016;48.770;9.154;2023-05-28T06:55:19;17.80;91.40
2024;DHT22;1016;48.770;9.154;2023-05-28T06:57:44;17.90;91.50
2024;DHT22;1016;48.770;9.154;2023-05-28T07:00:10;18.00;91.70
2024;DHT22;1016;48.770;9.154;2023-05-28T07:02:38;18.00;91.80
2024;DHT22;1016;48.770;9.154;2023-05-28T07:05:04;18.00;91.80
2024;DHT22;1016;48.770;9.154;2023-05-28T07:07:31;18.10;92.00
2024;DHT22;1016;48.770;9.154;2023-05-28T07:09:56;18.20;91.60
2024;DHT22;1016;48.770;9.154;2023-05-28T07:12:22;18.20;91.70
2024;DHT22;1016;48.770;9.154;2023-05-28T07:14:48;18.20;91.70
2024;DHT22;1016;48.770;9.154;2023-05-28T07:17:13;18.30;91.70
2024;DHT22;1016;48.770;9.154;2023-05-28T07:19:39;18.40;91.80
2024;DHT22;1016;48.770;9.154;2023-05-28T07:22:05;18.50;91.50
2024;DHT22;1016;48.770;9.154;2023-05-28T07:24:30;18.60;91.30
2024;DHT22;1016;48.770;9.154;2023-05-28T07:26:56;18.70;91.30
2024;DHT22;1016;48.770;9.154;2023-05-28T07:29:21;18.70;91.20
2024;DHT22;1016;48.770;9.154;2023-05-28T07:31:47;18.70;91.10
2024;DHT22;1016;48.770;9.154;2023-05-28T07:34:12;18.80;91.10
2024;DHT22;1016;48.770;9.154;2023-05-28T07:36:38;18.90;90.80
2024;DHT22;1016;48.770;9.154;2023-05-28T07:39:04;18.80;90.80
2024;DHT22;1016;48.770;9.154;2023-05-28T07:41:30;19.00;90.20
2024;DHT22;1016;48.770;9.154;2023-05-28T07:43:56;18.90;90.10
2024;DHT22;1016;48.770;9.154;2023-05-28T07:46:22;19.00;90.10
2024;DHT22;1016;48.770;9.154;2023-05-28T07:48:48;19.00;90.20
2024;DHT22;1016;48.770;9.154;2023-05-28T07:51:14;19.10;90.30
2024;DHT22;1016;48.770;9.154;2023-05-28T07:53:39;19.10;90.30
2024;DHT22;1016;48.770;9.154;2023-05-28T07:56:05;19.20;90.00
2024;DHT22;1016;48.770;9.154;2023-05-28T07:58:31;19.20;89.30
2024;DHT22;1016;48.770;9.154;2023-05-28T08:00:56;19.30;89.70
2024;DHT22;1016;48.770;9.154;2023-05-28T08:03:22;19.30;89.90
2024;DHT22;1016;48.770;9.154;2023-05-28T08:05:49;19.40;89.90
2024;DHT22;1016;48.770;9.154;2023-05-28T08:08:15;19.40;89.40
2024;DHT22;1016;48.770;9.154;2023-05-28T08:10:40;19.50;89.50
2024;DHT22;1016;48.770;9.154;2023-05-28T08:13:06;19.60;88.80
2024;DHT22;1016;48.770;9.154;2023-05-28T08:15:32;19.70;88.20
2024;DHT22;1016;48.770;9.154;2023-05-28T08:17:57;19.80;88.20
2024;DHT22;1016;48.770;9.154;2023-05-28T08:20:23;19.90;88.30
2024;DHT22;1016;48.770;9.154;2023-05-28T08:22:49;19.90;87.70
2024;DHT22;1016;48.770;9.154;2023-05-28T08:25:14;20.00;87.70
2024;DHT22;1016;48.770;9.154;2023-05-28T08:27:40;20.10;87.40
2024;DHT22;1016;48.770;9.154;2023-05-28T08:30:06;20.20;86.80
2024;DHT22;1016;48.770;9.154;2023-05-28T08:32:32;20.20;86.60
2024;DHT22;1016;48.770;9.154;2023-05-28T08:34:57;20.20;86.30
2024;DHT22;1016;48.770;9.154;2023-05-28T08:37:23;20.30;85.80
2024;DHT22;1016;48.770;9.154;2023-05-28T08:39:48;20.30;86.20
2024;DHT22;1016;48.770;9.154;2023-05-28T08:42:14;20.30;85.70
2024;DHT22;1016;48.770;9.154;2023-05-28T08:44:39;20.30;85.00
2024;DHT22;1016;48.770;9.154;2023-05-28T08:47:05;20.40;84.80
2024;DHT22;1016;48.770;9.154;2023-05-28T08:49:41;20.40;84.80
2024;DHT22;1016;48.770;9.154;2023-05-28T08:52:08;20.50;84.10
2024;DHT22;1016;48.770;9.154;2023-05-28T08:54:36;20.50;84.40
2024;DHT22;1016;48.770;9.154;2023-05-28T08:57:03;20.60;84.70
2024;DHT22;1016;48.770;9.154;2023-05-28T08:59:29;20.60;84.50
2024;DHT22;1016;48.770;9.154;2023-05-28T09:01:56;20.70;84.50
2024;DHT22;1016;48.770;9.154;2023-05-28T09:04:21;20.70;84.00
2024;DHT22;1016;48.770;9.154;2023-05-28T09:06:48;20.80;84.00
2024;DHT22;1016;48.770;9.154;2023-05-28T09:09:16;20.90;83.70
2024;DHT22;1016;48.770;9.154;2023-05-28T09:11:42;21.00;84.00
2024;DHT22;1016;48.770;9.154;2023-05-28T09:14:12;21.00;83.60
2024;DHT22;1016;48.770;9.154;2023-05-28T09:16:42;21.10;83.70
2024;DHT22;1016;48.770;9.154;2023-05-28T09:19:08;21.10;83.60
2024;DHT22;1016;48.770;9.154;2023-05-28T09:21:34;21.30;83.70
2024;DHT22;1016;48.770;9.154;2023-05-28T09:24:01;21.30;83.40
2024;DHT22;1016;48.770;9.154;2023-05-28T09:26:31;21.40;83.50
2024;DHT22;1016;48.770;9.154;2023-05-28T09:28:57;21.40;83.10
2024;DHT22;1016;48.770;9.154;2023-05-28T09:31:29;21.40;83.30
2024;DHT22;1016;48.770;9.154;2023-05-28T09:33:59;21.50;83.30
2024;DHT22;1016;48.770;9.154;2023-05-28T09:36:26;21.60;82.30
2024;DHT22;1016;48.770;9.154;2023-05-28T09:38:51;21.60;82.20
2024;DHT22;1016;48.770;9.154;2023-05-28T09:41:21;21.70;82.70
2024;DHT22;1016;48.770;9.154;2023-05-28T09:43:59;21.80;83.10
2024;DHT22;1016;48.770;9.154;2023-05-28T09:46:32;21.90;82.00
2024;DHT22;1016;48.770;9.154;2023-05-28T09:48:58;21.90;82.00
2024;DHT22;1016;48.770;9.154;2023-05-28T09:51:29;21.90;81.50
2024;DHT22;1016;48.770;9.154;2023-05-28T09:54:04;21.90;81.10
2024;DHT22;1016;48.770;9.154;2023-05-28T09:56:33;21.90;82.30
2024;DHT22;1016;48.770;9.154;2023-05-28T09:59:02;22.00;80.40
2024;DHT22;1016;48.770;9.154;2023-05-28T10:01:36;22.00;80.20
2024;DHT22;1016;48.770;9.154;2023-05-28T10:04:10;22.00;79.10
2024;DHT22;1016;48.770;9.154;2023-05-28T10:06:40;22.10;78.30
2024;DHT22;1016;48.770;9.154;2023-05-28T10:09:09;22.20;78.50
2024;DHT22;1016;48.770;9.154;2023-05-28T10:11:42;22.20;78.30
2024;DHT22;1016;48.770;9.154;2023-05-28T10:14:09;22.30;76.90
2024;DHT22;1016;48.770;9.154;2023-05-28T10:16:35;22.30;76.60
2024;DHT22;1016;48.770;9.154;2023-05-28T10:19:02;22.40;77.90
2024;DHT22;1016;48.770;9.154;2023-05-28T10:21:27;22.50;74.50
2024;DHT22;1016;48.770;9.154;2023-05-28T10:23:53;22.40;74.90
2024;DHT22;1016;48.770;9.154;2023-05-28T10:26:19;22.40;74.80
2024;DHT22;1016;48.770;9.154;2023-05-28T10:28:53;22.50;74.80
2024;DHT22;1016;48.770;9.154;2023-05-28T10:31:22;22.60;74.20
2024;DHT22;1016;48.770;9.154;2023-05-28T10:33:48;22.60;73.90
2024;DHT22;1016;48.770;9.154;2023-05-28T10:36:15;22.60;74.00
2024;DHT22;1016;48.770;9.154;2023-05-28T10:41:22;22.80;74.70
2024;DHT22;1016;48.770;9.154;2023-05-28T10:43:49;22.80;73.40
2024;DHT22;1016;48.770;9.154;2023-05-28T10:46:20;22.80;73.80
2024;DHT22;1016;48.770;9.154;2023-05-28T10:49:12;22.80;71.60
2024;DHT22;1016;48.770;9.154;2023-05-28T10:51:58;22.90;71.50
2024;DHT22;1016;48.770;9.154;2023-05-28T10:54:39;22.90;72.10
2024;DHT22;1016;48.770;9.154;2023-05-28T10:57:13;23.00;70.40
2024;DHT22;1016;48.770;9.154;2023-05-28T10:59:52;23.00;71.00
2024;DHT22;1016;48.770;9.154;2023-05-28T11:02:20;23.00;71.80
2024;DHT22;1016;48.770;9.154;2023-05-28T11:04:50;23.00;73.70
2024;DHT22;1016;48.770;9.154;2023-05-28T11:07:17;23.20;76.00
2024;DHT22;1016;48.770;9.154;2023-05-28T11:09:49;23.30;91.10
2024;DHT22;1016;48.770;9.154;2023-05-28T11:12:16;23.30;91.30
2024;DHT22;1016;48.770;9.154;2023-05-28T11:14:41;23.30;90.90
2024;DHT22;1016;48.770;9.154;2023-05-28T11:17:16;23.30;88.80
2024;DHT22;1016;48.770;9.154;2023-05-28T11:19:49;23.40;87.80
2024;DHT22;1016;48.770;9.154;2023-05-28T11:22:17;23.40;88.20
2024;DHT22;1016;48.770;9.154;2023-05-28T11:24:57;23.50;90.10
2024;DHT22;1016;48.770;9.154;2023-05-28T11:27:25;23.50;89.00
2024;DHT22;1016;48.770;9.154;2023-05-28T11:29:53;23.50;88.50
2024;DHT22;1016;48.770;9.154;2023-05-28T11:32:19;23.60;89.90
2024;DHT22;1016;48.770;9.154;2023-05-28T11:34:47;23.60;79.70
2024;DHT22;1016;48.770;9.154;2023-05-28T11:37:13;23.60;86.20
2024;DHT22;1016;48.770;9.154;2023-05-28T11:39:48;23.70;86.60
2024;DHT22;1016;48.770;9.154;2023-05-28T11:42:13;24.50;89.40
2024;DHT22;1016;48.770;9.154;2023-05-28T11:44:46;23.80;72.50
2024;DHT22;1016;48.770;9.154;2023-05-28T11:47:12;23.80;71.50
2024;DHT22;1016;48.770;9.154;2023-05-28T11:49:38;23.80;71.90
2024;DHT22;1016;48.770;9.154;2023-05-28T11:52:04;23.80;72.20
2024;DHT22;1016;48.770;9.154;2023-05-28T11:54:30;23.90;72.20
2024;DHT22;1016;48.770;9.154;2023-05-28T11:56:55;23.90;71.70
2024;DHT22;1016;48.770;9.154;2023-05-28T11:59:21;23.90;75.10
2024;DHT22;1016;48.770;9.154;2023-05-28T12:01:52;23.90;85.40
2024;DHT22;1016;48.770;9.154;2023-05-28T12:04:22;23.90;87.00
2024;DHT22;1016;48.770;9.154;2023-05-28T12:06:50;24.00;88.00
2024;DHT22;1016;48.770;9.154;2023-05-28T12:09:16;24.00;88.90
2024;DHT22;1016;48.770;9.154;2023-05-28T12:11:42;24.00;86.10
2024;DHT22;1016;48.770;9.154;2023-05-28T12:14:10;24.10;91.00
2024;DHT22;1016;48.770;9.154;2023-05-28T12:16:45;24.10;93.70
2024;DHT22;1016;48.770;9.154;2023-05-28T12:19:15;24.20;68.90
2024;DHT22;1016;48.770;9.154;2023-05-28T12:21:41;24.20;65.20
2024;DHT22;1016;48.770;9.154;2023-05-28T12:26:42;24.30;65.50
2024;DHT22;1016;48.770;9.154;2023-05-28T12:29:07;24.30;66.40
2024;DHT22;1016;48.770;9.154;2023-05-28T12:31:33;24.30;65.90
2024;DHT22;1016;48.770;9.154;2023-05-28T12:33:59;24.30;65.60
2024;DHT22;1016;48.770;9.154;2023-05-28T12:36:24;24.40;66.00
2024;DHT22;1016;48.770;9.154;2023-05-28T12:38:50;24.40;66.20
2024;DHT22;1016;48.770;9.154;2023-05-28T12:41:16;24.40;66.10
2024;DHT22;1016;48.770;9.154;2023-05-28T12:43:41;24.40;66.20
2024;DHT22;1016;48.770;9.154;2023-05-28T12:46:08;24.50;66.00
2024;DHT22;1016;48.770;9.154;2023-05-28T12:48:33;24.50;66.30
2024;DHT22;1016;48.770;9.154;2023-05-28T12:50:59;24.50;66.00
2024;DHT22;1016;48.770;9.154;2023-05-28T12:53:24;24.50;66.30
2024;DHT22;1016;48.770;9.154;2023-05-28T12:55:51;24.50;66.00
2024;DHT22;1016;48.770;9.154;2023-05-28T12:58:16;24.50;66.20
2024;DHT22;1016;48.770;9.154;2023-05-28T13:00:42;24.40;66.00
2024;DHT22;1016;48.770;9.154;2023-05-28T13:03:07;24.50;66.90
2024;DHT22;1016;48.770;9.154;2023-05-28T13:05:33;24.50;67.20
2024;DHT22;1016;48.770;9.154;2023-05-28T13:07:59;24.50;66.00
2024;DHT22;1016;48.770;9.154;2023-05-28T13:10:27;24.50;65.80
2024;DHT22;1016;48.770;9.154;2023-05-28T13:12:53;24.60;66.10
2024;DHT22;1016;48.770;9.154;2023-05-28T13:15:18;24.60;66.40
2024;DHT22;1016;48.770;9.154;2023-05-28T13:17:44;24.70;65.40
2024;DHT22;1016;48.770;9.154;2023-05-28T13:20:10;24.70;63.20
2024;DHT22;1016;48.770;9.154;2023-05-28T13:22:39;24.70;63.30
2024;DHT22;1016;48.770;9.154;2023-05-28T13:25:06;24.80;61.50
2024;DHT22;1016;48.770;9.154;2023-05-28T13:27:33;25.00;61.30
2024;DHT22;1016;48.770;9.154;2023-05-28T13:29:59;25.10;61.40
2024;DHT22;1016;48.770;9.154;2023-05-28T13:32:24;25.40;60.50
2024;DHT22;1016;48.770;9.154;2023-05-28T13:34:50;25.40;61.00
2024;DHT22;1016;48.770;9.154;2023-05-28T13:39:42;25.70;61.10
2024;DHT22;1016;48.770;9.154;2023-05-28T13:42:07;26.80;59.70
2024;DHT22;1016;48.770;9.154;2023-05-28T13:44:34;27.30;60.10
2024;DHT22;1016;48.770;9.154;2023-05-28T13:47:00;29.00;60.50
2024;DHT22;1016;48.770;9.154;2023-05-28T13:51:51;33.90;53.60
2024;DHT22;1016;48.770;9.154;2023-05-28T13:54:17;35.40;50.90
2024;DHT22;1016;48.770;9.154;2023-05-28T13:56:43;38.20;44.70
2024;DHT22;1016;48.770;9.154;2023-05-28T13:59:08;38.30;44.70
2024;DHT22;1016;48.770;9.154;2023-05-28T14:01:34;39.50;42.70
2024;DHT22;1016;48.770;9.154;2023-05-28T14:04:00;40.40;40.30
2024;DHT22;1016;48.770;9.154;2023-05-28T14:06:25;41.10;42.70
2024;DHT22;1016;48.770;9.154;2023-05-28T14:08:51;41.90;37.20
2024;DHT22;1016;48.770;9.154;2023-05-28T14:11:16;42.00;35.10
2024;DHT22;1016;48.770;9.154;2023-05-28T14:13:43;41.20;34.80
2024;DHT22;1016;48.770;9.154;2023-05-28T14:16:09;40.70;38.30
2024;DHT22;1016;48.770;9.154;2023-05-28T14:18:34;39.30;34.00
2024;DHT22;1016;48.770;9.154;2023-05-28T14:21:00;37.80;34.10
2024;DHT22;1016;48.770;9.154;2023-05-28T14:25:51;35.10;34.50
2024;DHT22;1016;48.770;9.154;2023-05-28T14:28:17;33.90;36.30
2024;DHT22;1016;48.770;9.154;2023-05-28T14:30:43;33.40;36.80
2024;DHT22;1016;48.770;9.154;2023-05-28T14:35:35;31.90;37.80
2024;DHT22;1016;48.770;9.154;2023-05-28T14:38:01;31.10;38.80
2024;DHT22;1016;48.770;9.154;2023-05-28T14:40:26;30.40;39.20
2024;DHT22;1016;48.770;9.154;2023-05-28T14:42:52;29.90;40.50
2024;DHT22;1016;48.770;9.154;2023-05-28T14:45:18;29.40;41.00
2024;DHT22;1016;48.770;9.154;2023-05-28T14:47:44;28.90;41.10
2024;DHT22;1016;48.770;9.154;2023-05-28T14:50:09;28.60;41.80
2024;DHT22;1016;48.770;9.154;2023-05-28T14:52:35;28.30;42.30
2024;DHT22;1016;48.770;9.154;2023-05-28T14:57:27;27.50;42.50
2024;DHT22;1016;48.770;9.154;2023-05-28T14:59:58;27.30;44.30
2024;DHT22;1016;48.770;9.154;2023-05-28T15:02:23;27.10;45.30
2024;DHT22;1016;48.770;9.154;2023-05-28T15:04:49;26.90;44.60
2024;DHT22;1016;48.770;9.154;2023-05-28T15:07:14;26.70;45.40
2024;DHT22;1016;48.770;9.154;2023-05-28T15:09:40;26.50;45.80
2024;DHT22;1016;48.770;9.154;2023-05-28T15:12:06;26.50;45.90
2024;DHT22;1016;48.770;9.154;2023-05-28T15:14:35;26.30;46.30
2024;DHT22;1016;48.770;9.154;2023-05-28T15:17:01;26.30;46.60
2024;DHT22;1016;48.770;9.154;2023-05-28T15:19:27;26.30;47.00
2024;DHT22;1016;48.770;9.154;2023-05-28T15:21:53;26.50;46.80
2024;DHT22;1016;48.770;9.154;2023-05-28T15:24:19;26.50;46.90
2024;DHT22;1016;48.770;9.154;2023-05-28T15:26:45;26.30;47.20
2024;DHT22;1016;48.770;9.154;2023-05-28T15:29:15;26.20;47.60
2024;DHT22;1016;48.770;9.154;2023-05-28T15:31:41;26.20;47.60
2024;DHT22;1016;48.770;9.154;2023-05-28T15:34:07;26.30;47.70
2024;DHT22;1016;48.770;9.154;2023-05-28T15:36:33;26.20;47.80
2024;DHT22;1016;48.770;9.154;2023-05-28T15:38:59;26.10;47.30
2024;DHT22;1016;48.770;9.154;2023-05-28T15:41:26;26.00;48.30
2024;DHT22;1016;48.770;9.154;2023-05-28T15:43:51;26.00;48.20
2024;DHT22;1016;48.770;9.154;2023-05-28T15:46:19;25.90;48.00
2024;DHT22;1016;48.770;9.154;2023-05-28T15:48:45;25.80;48.20
2024;DHT22;1016;48.770;9.154;2023-05-28T15:51:11;25.70;48.50
2024;DHT22;1016;48.770;9.154;2023-05-28T15:53:36;25.80;49.40
2024;DHT22;1016;48.770;9.154;2023-05-28T15:56:02;25.90;48.60
2024;DHT22;1016;48.770;9.154;2023-05-28T15:58:28;26.10;48.30
2024;DHT22;1016;48.770;9.154;2023-05-28T16:00:54;26.40;48.40
2024;DHT22;1016;48.770;9.154;2023-05-28T16:03:19;26.20;48.00
2024;DHT22;1016;48.770;9.154;2023-05-28T16:05:46;25.90;47.90
2024;DHT22;1016;48.770;9.154;2023-05-28T16:08:11;25.80;47.90
2024;DHT22;1016;48.770;9.154;2023-05-28T16:10:38;25.70;48.20
2024;DHT22;1016;48.770;9.154;2023-05-28T16:13:06;25.60;47.40
2024;DHT22;1016;48.770;9.154;2023-05-28T16:15:33;25.50;47.40